createdAt,value
2022-11-28T00:00:31.788Z,9.278007
2022-11-28T00:01:31.848Z,9.277966
2022-11-28T00:02:32.119Z,9.278033
2022-11-28T00:03:32.162Z,9.278050
2022-11-28T00:04:31.787Z,9.278130
2022-11-28T00:05:31.928Z,9.278337
2022-11-28T00:06:31.936Z,9.278271
2022-11-28T00:07:31.711Z,9.278331
2022-11-28T00:08:31.991Z,9.278256
2022-11-28T00:09:31.641Z,9.278416
2022-11-28T00:10:31.626Z,9.278201
2022-11-28T00:11:31.607Z,9.278168
2022-11-28T00:12:31.596Z,9.278169
2022-11-28T00:13:31.612Z,9.278227
2022-11-28T00:14:31.576Z,9.278300
2022-11-28T00:15:31.540Z,9.278242
2022-11-28T00:16:31.643Z,9.278307
2022-11-28T00:17:31.500Z,9.278210
2022-11-28T00:18:31.521Z,9.278237
2022-11-28T00:19:31.548Z,9.278167
2022-11-28T00:20:31.459Z,9.278167
2022-11-28T00:21:31.432Z,9.278258
2022-11-28T00:22:31.743Z,9.278322
2022-11-28T00:23:31.445Z,9.278157
2022-11-28T00:24:31.388Z,9.278171
2022-11-28T00:25:31.613Z,9.278208
2022-11-28T00:26:31.371Z,9.278204
2022-11-28T00:27:31.649Z,9.278365
2022-11-28T00:28:31.471Z,9.278331
2022-11-28T00:29:31.330Z,9.278336
2022-11-28T00:30:31.286Z,9.278400
2022-11-28T00:31:31.351Z,9.278303
2022-11-28T00:32:31.298Z,9.278280
2022-11-28T00:33:31.286Z,9.278287
2022-11-28T00:34:31.217Z,9.278320
2022-11-28T00:35:31.274Z,9.278264
2022-11-28T00:36:31.423Z,9.278277
2022-11-28T00:37:31.166Z,9.278337
2022-11-28T00:38:31.180Z,9.278323
2022-11-28T00:39:31.253Z,9.278368
2022-11-28T00:40:31.726Z,9.278363
2022-11-28T00:41:31.281Z,9.278427
2022-11-28T00:42:31.093Z,9.278384
2022-11-28T00:43:31.112Z,9.278479
2022-11-28T00:44:31.240Z,9.278418
2022-11-28T00:45:31.240Z,9.278380
2022-11-28T00:46:31.019Z,9.278411
2022-11-28T00:47:30.994Z,9.278385
2022-11-28T00:48:31.008Z,9.278320
2022-11-28T00:49:30.960Z,9.278335
2022-11-28T00:50:31.113Z,9.278250
2022-11-28T00:51:30.988Z,9.278281
2022-11-28T00:52:30.910Z,9.278257
2022-11-28T00:53:31.208Z,9.278318
2022-11-28T00:54:31.158Z,9.278407
2022-11-28T00:55:31.328Z,9.278333
2022-11-28T00:56:30.853Z,9.278342
2022-11-28T00:57:30.820Z,9.278288
2022-11-28T00:58:30.847Z,9.278432
2022-11-28T00:59:30.802Z,9.278262
2022-11-28T01:00:30.776Z,9.278293
2022-11-28T01:01:30.807Z,9.278382
2022-11-28T01:02:31.184Z,9.278308
2022-11-28T01:03:30.757Z,9.278346
2022-11-28T01:04:30.704Z,9.278507
2022-11-28T01:05:30.699Z,9.278519
2022-11-28T01:06:30.691Z,9.278453
2022-11-28T01:07:30.912Z,9.278325
2022-11-28T01:08:30.957Z,9.278338
2022-11-28T01:09:30.626Z,9.278334
2022-11-28T01:10:30.619Z,9.278218
2022-11-28T01:11:30.593Z,9.278307
2022-11-28T01:12:30.584Z,9.278358
2022-11-28T01:13:30.598Z,9.278283
2022-11-28T01:14:30.553Z,9.278310
2022-11-28T01:15:30.549Z,9.278305
2022-11-28T01:16:30.623Z,9.278351
2022-11-28T01:17:30.612Z,9.278267
2022-11-28T01:18:30.523Z,9.278118
2022-11-28T01:19:30.452Z,9.278150
2022-11-28T01:20:30.483Z,9.278100
2022-11-28T01:21:30.675Z,9.278250
2022-11-28T01:22:30.409Z,9.278296
2022-11-28T01:23:30.488Z,9.278276
2022-11-28T01:24:30.571Z,9.278180
2022-11-28T01:25:30.364Z,9.278198
2022-11-28T01:26:30.343Z,9.278288
2022-11-28T01:27:30.324Z,9.278390
2022-11-28T01:28:30.342Z,9.278358
2022-11-28T01:29:30.536Z,9.278181
2022-11-28T01:30:30.936Z,9.278307
2022-11-28T01:31:30.734Z,9.278328
2022-11-28T01:32:30.344Z,9.278296
2022-11-28T01:33:30.437Z,9.278323
2022-11-28T01:34:30.505Z,9.278308
2022-11-28T01:35:30.582Z,9.278484
2022-11-28T01:36:30.462Z,9.278421
2022-11-28T01:37:30.473Z,9.278461
2022-11-28T01:38:30.166Z,9.278480
2022-11-28T01:39:30.350Z,9.278218
2022-11-28T01:40:30.096Z,9.278168
2022-11-28T01:41:30.353Z,9.278387
2022-11-28T01:42:30.068Z,9.278335
2022-11-28T01:43:30.082Z,9.278506
2022-11-28T01:44:30.037Z,9.278558
2022-11-28T01:45:30.045Z,9.278295
2022-11-28T01:46:30.151Z,9.278393
2022-11-28T01:47:29.975Z,9.278189
2022-11-28T01:48:29.989Z,9.278241
2022-11-28T01:49:29.942Z,9.278254
2022-11-28T01:50:29.928Z,9.278298
2022-11-28T01:51:29.903Z,9.278334
2022-11-28T01:52:29.888Z,9.278098
2022-11-28T01:53:29.906Z,9.278306
2022-11-28T01:54:29.851Z,9.278182
2022-11-28T01:55:29.921Z,9.278320
2022-11-28T01:56:29.821Z,9.278230
2022-11-28T01:57:29.809Z,9.278295
2022-11-28T01:58:29.827Z,9.278386
2022-11-28T01:59:29.799Z,9.278283
2022-11-28T02:00:29.755Z,9.278316
2022-11-28T02:01:30.072Z,9.278414
2022-11-28T02:02:29.757Z,9.278480
2022-11-28T02:03:29.737Z,9.278260
2022-11-28T02:04:29.831Z,9.278355
2022-11-28T02:05:29.778Z,9.278331
2022-11-28T02:06:29.921Z,9.278374
2022-11-28T02:07:29.663Z,9.278405
2022-11-28T02:08:29.647Z,9.278461
2022-11-28T02:09:29.593Z,9.278425
2022-11-28T02:10:29.893Z,9.278436
2022-11-28T02:11:29.644Z,9.278326
2022-11-28T02:12:29.558Z,9.278170
2022-11-28T02:13:29.736Z,9.278164
2022-11-28T02:14:29.950Z,9.278288
2022-11-28T02:15:29.812Z,9.278370
2022-11-28T02:16:29.810Z,9.278383
2022-11-28T02:17:29.643Z,9.278720
2022-11-28T02:18:29.493Z,9.278721
2022-11-28T02:19:29.428Z,9.278786
2022-11-28T02:20:29.415Z,9.278843
2022-11-28T02:21:29.634Z,9.278722
2022-11-28T02:22:29.721Z,9.278528
2022-11-28T02:23:29.941Z,9.278491
2022-11-28T02:24:29.649Z,9.278475
2022-11-28T02:25:29.570Z,9.278455
2022-11-28T02:26:29.605Z,9.278301
2022-11-28T02:27:29.360Z,9.278297
2022-11-28T02:28:29.277Z,9.278414
2022-11-28T02:29:29.291Z,9.278313
2022-11-28T02:30:29.248Z,9.278267
2022-11-28T02:31:29.314Z,9.278388
2022-11-28T02:32:29.214Z,9.278263
2022-11-28T02:33:29.294Z,9.278224
2022-11-28T02:34:29.213Z,9.278186
2022-11-28T02:35:29.160Z,9.278188
2022-11-28T02:36:29.384Z,9.278260
2022-11-28T02:37:29.369Z,9.278343
2022-11-28T02:38:29.116Z,9.278384
2022-11-28T02:39:29.259Z,9.278337
2022-11-28T02:40:29.083Z,9.278322
2022-11-28T02:41:29.052Z,9.278439
2022-11-28T02:42:29.044Z,9.278504
2022-11-28T02:43:29.132Z,9.278410
2022-11-28T02:44:29.162Z,9.278271
2022-11-28T02:45:28.984Z,9.278211
2022-11-28T02:46:29.060Z,9.278358
2022-11-28T02:47:28.952Z,9.278303
2022-11-28T02:48:28.938Z,9.278317
2022-11-28T02:49:29.200Z,9.278242
2022-11-28T02:50:28.921Z,9.278193
2022-11-28T02:51:28.901Z,9.278167
2022-11-28T02:52:28.882Z,9.278291
2022-11-28T02:53:28.883Z,9.278127
2022-11-28T02:54:28.906Z,9.278044
2022-11-28T02:55:28.826Z,9.278195
2022-11-28T02:56:28.797Z,9.278170
2022-11-28T02:57:28.931Z,9.278342
2022-11-28T02:58:28.772Z,9.278202
2022-11-28T02:59:28.843Z,9.278243
2022-11-28T03:00:28.780Z,9.278359
2022-11-28T03:01:28.811Z,9.278358
2022-11-28T03:02:28.795Z,9.278365
2022-11-28T03:03:28.682Z,9.278319
2022-11-28T03:04:28.703Z,9.278296
2022-11-28T03:05:28.645Z,9.278313
2022-11-28T03:06:28.625Z,9.278307
2022-11-28T03:07:28.658Z,9.278354
2022-11-28T03:08:28.590Z,9.278297
2022-11-28T03:09:28.621Z,9.278297
2022-11-28T03:10:28.575Z,9.278337
2022-11-28T03:11:28.544Z,9.278343
2022-11-28T03:12:28.534Z,9.278218
2022-11-28T03:13:28.515Z,9.278259
2022-11-28T03:14:28.517Z,9.278216
2022-11-28T03:15:28.543Z,9.278255
2022-11-28T03:16:28.547Z,9.278199
2022-11-28T03:17:28.438Z,9.278234
2022-11-28T03:18:28.429Z,9.278262
2022-11-28T03:19:28.439Z,9.278306
2022-11-28T03:20:28.401Z,9.278310
2022-11-28T03:21:28.374Z,9.278302
2022-11-28T03:22:28.352Z,9.278238
2022-11-28T03:23:28.362Z,9.278312
2022-11-28T03:24:28.361Z,9.278299
2022-11-28T03:25:28.295Z,9.277966
2022-11-28T03:26:28.282Z,9.278271
2022-11-28T03:27:28.263Z,9.278338
2022-11-28T03:28:28.242Z,9.278481
2022-11-28T03:29:28.257Z,9.278683
2022-11-28T03:30:28.202Z,9.278287
2022-11-28T03:31:28.356Z,9.277992
2022-11-28T03:32:28.178Z,9.278013
2022-11-28T03:33:28.174Z,9.278303
2022-11-28T03:34:28.179Z,9.278145
2022-11-28T03:35:28.132Z,9.278133
2022-11-28T03:36:28.108Z,9.278019
2022-11-28T03:37:28.095Z,9.278215
2022-11-28T03:38:28.066Z,9.278302
2022-11-28T03:39:28.093Z,9.278276
2022-11-28T03:40:28.036Z,9.278368
2022-11-28T03:41:28.025Z,9.278445
2022-11-28T03:42:28.151Z,9.278364
2022-11-28T03:43:27.984Z,9.278403
2022-11-28T03:44:28.046Z,9.278668
2022-11-28T03:45:27.954Z,9.278571
2022-11-28T03:46:27.960Z,9.278485
2022-11-28T03:47:27.984Z,9.278036
2022-11-28T03:48:27.911Z,9.278085
2022-11-28T03:49:27.923Z,9.278110
2022-11-28T03:50:27.867Z,9.278216
2022-11-28T03:51:27.847Z,9.278381
2022-11-28T03:52:27.841Z,9.278314
2022-11-28T03:53:27.807Z,9.278297
2022-11-28T03:54:27.818Z,9.278541
2022-11-28T03:55:27.891Z,9.278342
2022-11-28T03:56:27.761Z,9.278365
2022-11-28T03:57:27.747Z,9.278325
2022-11-28T03:58:27.730Z,9.278281
2022-11-28T03:59:27.738Z,9.278304
2022-11-28T04:00:27.696Z,9.278097
2022-11-28T04:01:27.740Z,9.278165
2022-11-28T04:02:27.656Z,9.278124
2022-11-28T04:03:27.811Z,9.278428
2022-11-28T04:04:27.648Z,9.278530
2022-11-28T04:05:27.615Z,9.278618
2022-11-28T04:06:27.592Z,9.278526
2022-11-28T04:07:27.685Z,9.278194
2022-11-28T04:08:27.552Z,9.278143
2022-11-28T04:09:27.568Z,9.278331
2022-11-28T04:10:27.512Z,9.277858
2022-11-28T04:11:27.505Z,9.277975
2022-11-28T04:12:27.488Z,9.277679
2022-11-28T04:13:27.480Z,9.277756
2022-11-28T04:14:27.487Z,9.278014
2022-11-28T04:15:27.438Z,9.278226
2022-11-28T04:16:27.475Z,9.278346
2022-11-28T04:17:27.400Z,9.278422
2022-11-28T04:18:27.376Z,9.278223
2022-11-28T04:19:27.482Z,9.278240
2022-11-28T04:20:27.345Z,9.278250
2022-11-28T04:21:27.324Z,9.278236
2022-11-28T04:22:27.312Z,9.278266
2022-11-28T04:23:27.286Z,9.278282
2022-11-28T04:24:27.305Z,9.278211
2022-11-28T04:25:27.261Z,9.278088
2022-11-28T04:26:27.237Z,9.278368
2022-11-28T04:27:27.222Z,9.278334
2022-11-28T04:28:27.215Z,9.278281
2022-11-28T04:29:27.235Z,9.278232
2022-11-28T04:30:27.181Z,9.278251
2022-11-28T04:31:27.187Z,9.278332
2022-11-28T04:32:27.161Z,9.278212
2022-11-28T04:33:27.116Z,9.278273
2022-11-28T04:34:27.131Z,9.278358
2022-11-28T04:35:27.163Z,9.278345
2022-11-28T04:36:27.073Z,9.278428
2022-11-28T04:37:27.044Z,9.278374
2022-11-28T04:38:27.032Z,9.278340
2022-11-28T04:39:27.046Z,9.278384
2022-11-28T04:40:27.007Z,9.278344
2022-11-28T04:41:27.001Z,9.278320
2022-11-28T04:42:26.970Z,9.278273
2022-11-28T04:43:27.045Z,9.278307
2022-11-28T04:44:26.981Z,9.278330
2022-11-28T04:45:26.981Z,9.278320
2022-11-28T04:46:26.948Z,9.278317
2022-11-28T04:47:26.885Z,9.278318
2022-11-28T04:48:32.742Z,9.278251
2022-11-28T04:49:28.888Z,9.278458
2022-11-28T04:50:26.830Z,9.278339
2022-11-28T04:51:26.887Z,9.278233
2022-11-28T04:52:26.795Z,9.278266
2022-11-28T04:53:26.775Z,9.278270
2022-11-28T04:54:26.795Z,9.278316
2022-11-28T04:55:26.743Z,9.278258
2022-11-28T04:56:26.731Z,9.278284
2022-11-28T04:57:26.709Z,9.278326
2022-11-28T04:58:26.686Z,9.278304
2022-11-28T04:59:26.727Z,9.278324
2022-11-28T05:00:26.666Z,9.278285
2022-11-28T05:01:26.745Z,9.278309
2022-11-28T05:02:26.704Z,9.278274
2022-11-28T05:03:26.605Z,9.278343
2022-11-28T05:04:26.621Z,9.278264
2022-11-28T05:05:26.571Z,9.278234
2022-11-28T05:06:26.561Z,9.278229
2022-11-28T05:07:26.869Z,9.278217
2022-11-28T05:08:26.519Z,9.278262
2022-11-28T05:09:26.531Z,9.278308
2022-11-28T05:10:26.533Z,9.278256
2022-11-28T05:11:26.695Z,9.278243
2022-11-28T05:12:27.218Z,9.278204
2022-11-28T05:13:26.809Z,9.278155
2022-11-28T05:14:26.456Z,9.278292
2022-11-28T05:15:26.393Z,9.278208
2022-11-28T05:16:26.562Z,9.278340
2022-11-28T05:17:26.368Z,9.278167
2022-11-28T05:18:26.344Z,9.278231
2022-11-28T05:19:26.765Z,9.278341
2022-11-28T05:20:26.306Z,9.278315
2022-11-28T05:21:26.307Z,9.278281
2022-11-28T05:22:26.798Z,9.278410
2022-11-28T05:23:26.362Z,9.278290
2022-11-28T05:24:31.978Z,9.278335
2022-11-28T05:25:28.229Z,9.278122
2022-11-28T05:26:26.391Z,9.278176
2022-11-28T05:27:26.207Z,9.278305
2022-11-28T05:28:26.176Z,9.278309
2022-11-28T05:29:26.206Z,9.278289
2022-11-28T05:30:26.137Z,9.278346
2022-11-28T05:31:26.201Z,9.278414
2022-11-28T05:32:26.122Z,9.278356
2022-11-28T05:33:26.104Z,9.278243
2022-11-28T05:34:26.261Z,9.278314
2022-11-28T05:35:26.099Z,9.278254
2022-11-28T05:36:26.049Z,9.278355
2022-11-28T05:37:26.022Z,9.278368
2022-11-28T05:38:26.015Z,9.278358
2022-11-28T05:39:26.216Z,9.278327
2022-11-28T05:40:26.013Z,9.278238
2022-11-28T05:41:25.951Z,9.278307
2022-11-28T05:42:25.946Z,9.278365
2022-11-28T05:43:25.917Z,9.278304
2022-11-28T05:44:27.197Z,9.278379
2022-11-28T05:45:27.075Z,9.278379
2022-11-28T05:46:25.872Z,9.278378
2022-11-28T05:47:26.200Z,9.278395
2022-11-28T05:48:25.822Z,9.278353
2022-11-28T05:49:27.027Z,9.278341
2022-11-28T05:50:25.834Z,9.278337
2022-11-28T05:51:25.798Z,9.278282
2022-11-28T05:52:25.761Z,9.278271
2022-11-28T05:53:25.759Z,9.278308
2022-11-28T05:54:25.734Z,9.278266
2022-11-28T05:55:25.838Z,9.278350
2022-11-28T05:56:25.701Z,9.278352
2022-11-28T05:57:25.683Z,9.278216
2022-11-28T05:58:25.658Z,9.278183
2022-11-28T05:59:25.642Z,9.278385
2022-11-28T06:00:25.656Z,9.278272
2022-11-28T06:01:25.636Z,9.278152
2022-11-28T06:02:25.734Z,9.278232
2022-11-28T06:03:25.623Z,9.278373
2022-11-28T06:04:25.657Z,9.278519
2022-11-28T06:05:41.719Z,9.278143
2022-11-28T06:06:27.530Z,9.278111
2022-11-28T06:07:25.574Z,9.278293
2022-11-28T06:08:25.520Z,9.278227
2022-11-28T06:09:26.236Z,9.278104
2022-11-28T06:10:26.536Z,9.278233
2022-11-28T06:11:25.497Z,9.278156
2022-11-28T06:12:25.423Z,9.278132
2022-11-28T06:13:25.399Z,9.278144
2022-11-28T06:14:25.383Z,9.277999
2022-11-28T06:15:25.435Z,9.278005
2022-11-28T06:16:25.469Z,9.278239
2022-11-28T06:17:25.340Z,9.278148
2022-11-28T06:18:25.319Z,9.278340
2022-11-28T06:19:25.295Z,9.278501
2022-11-28T06:20:25.323Z,9.278407
2022-11-28T06:21:25.256Z,9.278262
2022-11-28T06:22:25.241Z,9.278377
2022-11-28T06:23:25.232Z,9.278222
2022-11-28T06:24:25.397Z,9.278216
2022-11-28T06:25:25.225Z,9.278223
2022-11-28T06:26:25.177Z,9.278210
2022-11-28T06:27:25.227Z,9.278169
2022-11-28T06:28:25.147Z,9.278216
2022-11-28T06:29:25.250Z,9.278266
2022-11-28T06:30:25.143Z,9.278182
2022-11-28T06:31:25.123Z,9.278263
2022-11-28T06:32:25.073Z,9.278351
2022-11-28T06:33:25.156Z,9.278287
2022-11-28T06:34:25.037Z,9.278395
2022-11-28T06:35:25.077Z,9.278221
2022-11-28T06:36:25.077Z,9.278056
2022-11-28T06:37:25.126Z,9.278263
2022-11-28T06:38:24.985Z,9.277896
2022-11-28T06:39:25.043Z,9.278191
2022-11-28T06:40:24.963Z,9.278407
2022-11-28T06:41:24.922Z,9.278492
2022-11-28T06:42:24.908Z,9.278380
2022-11-28T06:43:24.996Z,9.278288
2022-11-28T06:44:25.011Z,9.278173
2022-11-28T06:45:24.985Z,9.278454
2022-11-28T06:46:24.889Z,9.278573
2022-11-28T06:47:25.003Z,9.278277
2022-11-28T06:48:24.803Z,9.278180
2022-11-28T06:49:24.799Z,9.278005
2022-11-28T06:50:24.813Z,9.277865
2022-11-28T06:51:24.810Z,9.278064
2022-11-28T06:52:25.744Z,9.278162
2022-11-28T06:53:28.662Z,9.278139
2022-11-28T06:54:26.946Z,9.278190
2022-11-28T06:55:24.717Z,9.278286
2022-11-28T06:56:24.671Z,9.278283
2022-11-28T06:57:24.656Z,9.278136
2022-11-28T06:58:24.640Z,9.278143
2022-11-28T06:59:24.691Z,9.278117
2022-11-28T07:00:24.646Z,9.278159
2022-11-28T07:01:24.604Z,9.278355
2022-11-28T07:02:24.588Z,9.278314
2022-11-28T07:03:24.641Z,9.278294
2022-11-28T07:04:24.550Z,9.278316
2022-11-28T07:05:24.585Z,9.278446
2022-11-28T07:06:24.605Z,9.278456
2022-11-28T07:07:24.503Z,9.278529
2022-11-28T07:08:24.512Z,9.278532
2022-11-28T07:09:24.445Z,9.278275
2022-11-28T07:10:24.466Z,9.278118
2022-11-28T07:11:24.537Z,9.278113
2022-11-28T07:12:24.401Z,9.278139
2022-11-28T07:13:24.378Z,9.278009
2022-11-28T07:14:24.375Z,9.278225
2022-11-28T07:15:24.445Z,9.278033
2022-11-28T07:16:24.413Z,9.277748
2022-11-28T07:17:24.332Z,9.277999
2022-11-28T07:18:24.294Z,9.278048
2022-11-28T07:19:24.270Z,9.278022
2022-11-28T07:20:24.302Z,9.278205
2022-11-28T07:21:24.258Z,9.278260
2022-11-28T07:22:24.220Z,9.278108
2022-11-28T07:23:24.210Z,9.278122
2022-11-28T07:24:24.200Z,9.278202
2022-11-28T07:25:24.195Z,9.278018
2022-11-28T07:26:24.152Z,9.278145
2022-11-28T07:27:24.341Z,9.278142
2022-11-28T07:28:24.218Z,9.278090
2022-11-28T07:29:24.346Z,9.277925
2022-11-28T07:30:24.161Z,9.278107
2022-11-28T07:31:24.163Z,9.278067
2022-11-28T07:32:24.072Z,9.277892
2022-11-28T07:33:24.202Z,9.278062
2022-11-28T07:34:24.014Z,9.278102
2022-11-28T07:35:24.038Z,9.278194
2022-11-28T07:36:23.999Z,9.278343
2022-11-28T07:37:24.022Z,9.278247
2022-11-28T07:38:23.962Z,9.278188
2022-11-28T07:39:24.319Z,9.278300
2022-11-28T07:40:23.955Z,9.278191
2022-11-28T07:41:26.703Z,9.278282
2022-11-28T07:42:24.900Z,9.278387
2022-11-28T07:43:23.853Z,9.278308
2022-11-28T07:44:24.240Z,9.278275
2022-11-28T07:45:32.977Z,9.278346
2022-11-28T07:46:24.922Z,9.278479
2022-11-28T07:47:23.798Z,9.278219
2022-11-28T07:48:23.777Z,9.278343
2022-11-28T07:49:23.760Z,9.278287
2022-11-28T07:50:23.791Z,9.278277
2022-11-28T07:51:23.737Z,9.278235
2022-11-28T07:52:23.702Z,9.278279
2022-11-28T07:53:23.687Z,9.278276
2022-11-28T07:54:23.674Z,9.278165
2022-11-28T07:55:23.730Z,9.278258
2022-11-28T07:56:23.824Z,9.278297
2022-11-28T07:57:23.608Z,9.278312
2022-11-28T07:58:23.603Z,9.278219
2022-11-28T07:59:23.841Z,9.278146
2022-11-28T08:00:23.630Z,9.278218
2022-11-28T08:01:23.563Z,9.278186
2022-11-28T08:02:23.565Z,9.278262
2022-11-28T08:03:23.527Z,9.278324
2022-11-28T08:04:23.573Z,9.278283
2022-11-28T08:05:23.522Z,9.278299
2022-11-28T08:06:23.466Z,9.278157
2022-11-28T08:07:23.494Z,9.278290
2022-11-28T08:08:23.431Z,9.278345
2022-11-28T08:09:23.407Z,9.278357
2022-11-28T08:10:23.452Z,9.278268
2022-11-28T08:11:23.383Z,9.278239
2022-11-28T08:12:23.377Z,9.278206
2022-11-28T08:13:23.402Z,9.278257
2022-11-28T08:14:23.339Z,9.278309
2022-11-28T08:15:23.376Z,9.278381
2022-11-28T08:16:23.375Z,9.278419
2022-11-28T08:17:23.442Z,9.278419
2022-11-28T08:18:23.454Z,9.278398
2022-11-28T08:20:17.232Z,9.278175
2022-11-28T08:20:24.329Z,9.278161
2022-11-28T08:21:24.214Z,9.278299
2022-11-28T08:22:23.321Z,9.278279
2022-11-28T08:23:23.495Z,9.278419
2022-11-28T08:24:23.177Z,9.278377
2022-11-28T08:25:23.226Z,9.278421
2022-11-28T08:26:24.899Z,9.278311
2022-11-28T08:27:25.350Z,9.278484
2022-11-28T08:28:23.737Z,9.278370
2022-11-28T08:29:23.066Z,9.278234
2022-11-28T08:30:23.330Z,9.278483
2022-11-28T08:31:23.140Z,9.278451
2022-11-28T08:32:23.033Z,9.278580
2022-11-28T08:33:23.005Z,9.278316
2022-11-28T08:34:22.985Z,9.278584
2022-11-28T08:35:22.994Z,9.278301
2022-11-28T08:36:23.054Z,9.278344
2022-11-28T08:37:22.929Z,9.278427
2022-11-28T08:38:22.920Z,9.278498
2022-11-28T08:39:24.483Z,9.278446
2022-11-28T08:40:24.081Z,9.278270
2022-11-28T08:41:22.864Z,9.278317
2022-11-28T08:42:22.841Z,9.278244
2022-11-28T08:43:23.132Z,9.278218
2022-11-28T08:44:22.812Z,9.278367
2022-11-28T08:45:23.151Z,9.278498
2022-11-28T08:46:23.715Z,9.278514
2022-11-28T08:47:22.762Z,9.278518
2022-11-28T08:48:22.736Z,9.278325
2022-11-28T08:49:22.720Z,9.278294
2022-11-28T08:50:22.866Z,9.278261
2022-11-28T08:51:22.694Z,9.278421
2022-11-28T08:52:22.684Z,9.278450
2022-11-28T08:53:22.699Z,9.278440
2022-11-28T08:54:22.666Z,9.278360
2022-11-28T08:55:31.704Z,9.278360
2022-11-28T08:56:24.643Z,9.278410
2022-11-28T08:57:22.620Z,9.278261
2022-11-28T08:58:22.570Z,9.278266
2022-11-28T08:59:22.569Z,9.278174
2022-11-28T09:00:22.541Z,9.278231
2022-11-28T09:01:22.615Z,9.278192
2022-11-28T09:02:25.918Z,9.278281
2022-11-28T09:03:23.554Z,9.278340
2022-11-28T09:04:22.502Z,9.278193
2022-11-28T09:05:22.461Z,9.278330
2022-11-28T09:06:22.496Z,9.278347
2022-11-28T09:07:22.478Z,9.278419
2022-11-28T09:08:22.503Z,9.278379
2022-11-28T09:09:22.595Z,9.278339
2022-11-28T09:10:22.372Z,9.278364
2022-11-28T09:11:22.583Z,9.278316
2022-11-28T09:12:22.349Z,9.278319
2022-11-28T09:13:22.800Z,9.278275
2022-11-28T09:14:22.805Z,9.278407
2022-11-28T09:15:22.485Z,9.278442
2022-11-28T09:16:22.747Z,9.278497
2022-11-28T09:17:22.378Z,9.278354
2022-11-28T09:18:22.870Z,9.278370
2022-11-28T09:19:22.278Z,9.278309
2022-11-28T09:20:22.463Z,9.278358
2022-11-28T09:21:22.321Z,9.278399
2022-11-28T09:22:22.170Z,9.278422
2022-11-28T09:23:22.445Z,9.278415
2022-11-28T09:24:22.129Z,9.278303
2022-11-28T09:25:22.138Z,9.278358
2022-11-28T09:26:22.212Z,9.278461
2022-11-28T09:27:22.149Z,9.278275
2022-11-28T09:28:22.075Z,9.278334
2022-11-28T09:29:22.282Z,9.278380
2022-11-28T09:30:22.437Z,9.278309
2022-11-28T09:31:22.135Z,9.278271
2022-11-28T09:32:22.027Z,9.278410
2022-11-28T09:33:21.979Z,9.278335
2022-11-28T09:34:21.977Z,9.278303
2022-11-28T09:35:22.231Z,9.278303
2022-11-28T09:36:21.963Z,9.278326
2022-11-28T09:37:21.930Z,9.278358
2022-11-28T09:38:21.920Z,9.278363
2022-11-28T09:39:22.053Z,9.278233
2022-11-28T09:40:21.918Z,9.278222
2022-11-28T09:41:22.152Z,9.278170
2022-11-28T09:42:21.825Z,9.278227
2022-11-28T09:43:22.098Z,9.278106
2022-11-28T09:44:21.862Z,9.278265
2022-11-28T09:45:22.162Z,9.278244
2022-11-28T09:46:21.943Z,9.278259
2022-11-28T09:47:22.798Z,9.278177
2022-11-28T09:48:22.167Z,9.278490
2022-11-28T09:49:21.715Z,9.278439
2022-11-28T09:50:22.025Z,9.278328
2022-11-28T09:51:21.853Z,9.278363
2022-11-28T09:52:21.902Z,9.278351
2022-11-28T09:53:22.595Z,9.278209
2022-11-28T09:54:22.009Z,9.278205
2022-11-28T09:55:22.072Z,9.278246
2022-11-28T09:56:22.007Z,9.278176
2022-11-28T09:57:22.508Z,9.278199
2022-11-28T09:58:22.206Z,9.278295
2022-11-28T09:59:21.936Z,9.278226
2022-11-28T10:00:21.784Z,9.278281
2022-11-28T10:01:21.623Z,9.278197
2022-11-28T10:02:22.692Z,9.278247
2022-11-28T10:03:22.803Z,9.278184
2022-11-28T10:04:21.590Z,9.278246
2022-11-28T10:05:21.543Z,9.278259
2022-11-28T10:06:21.823Z,9.278283
2022-11-28T10:07:21.553Z,9.278248
2022-11-28T10:08:21.815Z,9.278215
2022-11-28T10:09:21.462Z,9.278252
2022-11-28T10:10:21.405Z,9.278320
2022-11-28T10:11:21.529Z,9.278260
2022-11-28T10:12:22.229Z,9.278339
2022-11-28T10:13:21.947Z,9.278399
2022-11-28T10:14:22.014Z,9.278352
2022-11-28T10:15:22.125Z,9.278148
2022-11-28T10:16:21.364Z,9.277990
2022-11-28T10:17:21.264Z,9.278173
2022-11-28T10:18:21.275Z,9.278208
2022-11-28T10:19:46.569Z,9.278239
2022-11-28T10:20:23.248Z,9.278358
2022-11-28T10:21:21.259Z,9.278237
2022-11-28T10:22:21.281Z,9.278220
2022-11-28T10:23:21.247Z,9.278215
2022-11-28T10:24:21.175Z,9.278271
2022-11-28T10:25:21.172Z,9.278110
2022-11-28T10:26:21.220Z,9.278109
2022-11-28T10:27:26.638Z,9.278194
2022-11-28T10:28:23.106Z,9.278240
2022-11-28T10:29:21.121Z,9.278255
2022-11-28T10:30:21.055Z,9.278181
2022-11-28T10:31:21.246Z,9.278145
2022-11-28T10:32:21.064Z,9.278214
2022-11-28T10:33:22.003Z,9.278118
2022-11-28T10:34:20.985Z,9.278111
2022-11-28T10:35:26.705Z,9.278118
2022-11-28T10:36:23.004Z,9.278112
2022-11-28T10:37:20.969Z,9.278168
2022-11-28T10:38:20.984Z,9.278266
2022-11-28T10:39:20.915Z,9.278160
2022-11-28T10:40:20.953Z,9.278170
2022-11-28T10:41:20.984Z,9.278215
2022-11-28T10:42:20.818Z,9.278329
2022-11-28T10:43:20.867Z,9.278271
2022-11-28T10:44:21.771Z,9.278150
2022-11-28T10:45:21.845Z,9.278099
2022-11-28T10:46:20.929Z,9.278315
2022-11-28T10:47:20.732Z,9.278493
2022-11-28T10:48:39.192Z,9.278389
2022-11-28T10:49:22.691Z,9.278257
2022-11-28T10:50:20.672Z,9.278303
2022-11-28T10:51:20.695Z,9.278215
2022-11-28T10:52:20.652Z,9.278020
2022-11-28T10:53:20.643Z,9.277987
2022-11-28T10:54:20.632Z,9.277801
2022-11-28T10:55:20.612Z,9.277787
2022-11-28T10:56:20.641Z,9.277733
2022-11-28T10:57:20.560Z,9.277858
2022-11-28T10:58:20.539Z,9.277910
2022-11-28T10:59:20.584Z,9.277910
2022-11-28T11:00:20.501Z,9.277910
2022-11-28T11:01:20.682Z,9.278527
2022-11-28T11:02:20.468Z,9.278597
2022-11-28T11:03:20.458Z,9.278666
2022-11-28T11:04:20.516Z,9.278749
2022-11-28T11:05:20.417Z,9.278771
2022-11-28T11:06:20.436Z,9.278852
2022-11-28T11:07:25.063Z,9.278584
2022-11-28T11:08:22.435Z,9.278511
2022-11-28T11:09:20.349Z,9.278562
2022-11-28T11:10:20.347Z,9.278618
2022-11-28T11:11:20.375Z,9.278619
2022-11-28T11:12:20.308Z,9.278558
2022-11-28T11:13:20.286Z,9.278583
2022-11-28T11:14:20.272Z,9.278523
2022-11-28T11:15:20.245Z,9.278504
2022-11-28T11:16:20.360Z,9.278461
2022-11-28T11:17:20.245Z,9.278508
2022-11-28T11:18:20.205Z,9.278566
2022-11-28T11:19:20.482Z,9.278374
2022-11-28T11:20:20.186Z,9.278360
2022-11-28T11:21:20.176Z,9.278338
2022-11-28T11:22:20.135Z,9.278296
2022-11-28T11:23:20.111Z,9.278284
2022-11-28T11:24:20.095Z,9.278263
2022-11-28T11:25:20.102Z,9.278276
2022-11-28T11:26:20.104Z,9.278298
2022-11-28T11:27:20.053Z,9.278252
2022-11-28T11:28:20.035Z,9.278315
2022-11-28T11:29:20.025Z,9.278246
2022-11-28T11:30:19.993Z,9.278111
2022-11-28T11:31:20.118Z,9.278236
2022-11-28T11:32:19.969Z,9.278214
2022-11-28T11:33:19.976Z,9.278381
2022-11-28T11:34:19.953Z,9.278378
2022-11-28T11:35:19.915Z,9.278261
2022-11-28T11:36:19.933Z,9.278625
2022-11-28T11:37:19.908Z,9.278722
2022-11-28T11:38:19.856Z,9.278796
2022-11-28T11:39:19.846Z,9.278804
2022-11-28T11:40:19.860Z,9.278427
2022-11-28T11:41:19.848Z,9.278350
2022-11-28T11:42:19.798Z,9.278326
2022-11-28T11:43:19.769Z,9.278331
2022-11-28T11:44:19.763Z,9.278327